createdAt,value
2017-12-11T00:01:24.619Z,97590.45
2017-12-11T00:03:52.121Z,97589.16
2017-12-11T00:06:19.593Z,97594.29
2017-12-11T00:08:47.073Z,97603.46
2017-12-11T00:11:14.593Z,97594.38
2017-12-11T00:13:42.067Z,97590.72
2017-12-11T00:16:16.321Z,97585.63
2017-12-11T00:18:43.799Z,97591.86
2017-12-11T00:21:11.321Z,97578.33
2017-12-11T00:23:38.844Z,97577.03
2017-12-11T00:26:06.335Z,97568.50
2017-12-11T00:28:33.811Z,97577.50
2017-12-11T00:31:01.455Z,97581.30
2017-12-11T00:33:28.936Z,97584.99
2017-12-11T00:35:56.418Z,97579.56
2017-12-11T00:38:23.941Z,97569.80
2017-12-11T00:40:51.427Z,97575.26
2017-12-11T00:43:19.095Z,97569.77
2017-12-11T00:45:46.623Z,97574.89
2017-12-11T00:48:14.106Z,97577.70
2017-12-11T00:50:41.586Z,97576.70
2017-12-11T00:53:09.108Z,97571.66
2017-12-11T00:55:36.579Z,97568.93
2017-12-11T00:58:04.077Z,97577.00
2017-12-11T01:00:31.590Z,97576.20
2017-12-11T01:02:59.071Z,97571.00
2017-12-11T01:05:26.543Z,97578.66
2017-12-11T01:07:54.129Z,97580.09
2017-12-11T01:10:21.595Z,97577.75
2017-12-11T01:12:49.067Z,97576.64
2017-12-11T01:15:16.570Z,97579.06
2017-12-11T01:17:44.046Z,97576.34
2017-12-11T01:20:11.637Z,97576.06
2017-12-11T01:22:39.147Z,97569.87
2017-12-11T01:25:06.626Z,97562.58
2017-12-11T01:27:34.188Z,97566.91
2017-12-11T01:30:01.688Z,97564.86
2017-12-11T01:32:29.200Z,97570.58
2017-12-11T01:34:56.766Z,97569.82
2017-12-11T01:37:24.249Z,97570.11
2017-12-11T01:39:51.727Z,97563.91
2017-12-11T01:42:19.227Z,97573.34
2017-12-11T01:44:46.797Z,97572.11
2017-12-11T01:47:14.286Z,97570.75
2017-12-11T01:49:41.817Z,97571.20
2017-12-11T01:52:09.297Z,97579.57
2017-12-11T01:54:36.771Z,97582.67
2017-12-11T01:57:04.267Z,97586.98
2017-12-11T01:59:31.740Z,97591.33
2017-12-11T02:01:59.250Z,97589.88
2017-12-11T02:04:26.831Z,97591.80
2017-12-11T02:06:54.303Z,97590.41
2017-12-11T02:09:21.811Z,97595.36
2017-12-11T02:11:49.311Z,97596.88
2017-12-11T02:14:16.886Z,97607.03
2017-12-11T02:16:44.390Z,97611.77
2017-12-11T02:19:11.899Z,97607.09
2017-12-11T02:21:39.370Z,97605.39
2017-12-11T02:24:07.202Z,97621.09
2017-12-11T02:26:34.684Z,97617.92
2017-12-11T02:29:02.245Z,97617.11
2017-12-11T02:31:29.783Z,97614.32
2017-12-11T02:33:57.287Z,97622.12
2017-12-11T02:36:24.831Z,97628.28
2017-12-11T02:38:52.356Z,97635.14
2017-12-11T02:41:19.840Z,97629.80
2017-12-11T02:43:47.320Z,97629.84
2017-12-11T02:46:14.963Z,97631.75
2017-12-11T02:48:42.645Z,97634.59
2017-12-11T02:51:10.119Z,97641.00
2017-12-11T02:53:37.644Z,97634.84
2017-12-11T02:56:05.118Z,97635.53
2017-12-11T02:58:32.594Z,97632.47
2017-12-11T03:01:00.107Z,97641.07
2017-12-11T03:03:27.580Z,97653.80
2017-12-11T03:05:55.051Z,97638.95
2017-12-11T03:08:22.564Z,97643.78
2017-12-11T03:10:50.055Z,97647.80
2017-12-11T03:13:17.542Z,97650.62
2017-12-11T03:15:45.039Z,97649.95
2017-12-11T03:18:12.513Z,97648.91
2017-12-11T03:20:40.002Z,97648.22
2017-12-11T03:23:07.497Z,97645.43
2017-12-11T03:25:34.985Z,97644.64
2017-12-11T03:28:02.509Z,97645.70
2017-12-11T03:30:29.985Z,97643.30
2017-12-11T03:32:57.462Z,97639.53
2017-12-11T03:35:25.122Z,97651.06
2017-12-11T03:37:52.612Z,97651.45
2017-12-11T03:40:20.138Z,97659.79
2017-12-11T03:42:47.882Z,97668.37
2017-12-11T03:45:15.399Z,97672.80
2017-12-11T03:47:43.095Z,97675.34
2017-12-11T03:50:10.597Z,97682.59
2017-12-11T03:52:38.079Z,97696.66
2017-12-11T03:55:05.549Z,97706.34
2017-12-11T03:57:33.062Z,97714.92
2017-12-11T04:00:00.533Z,97711.16
2017-12-11T04:02:28.067Z,97702.17
2017-12-11T04:04:55.579Z,97700.58
2017-12-11T04:07:23.049Z,97712.11
2017-12-11T04:09:50.514Z,97725.37
2017-12-11T04:12:18.008Z,97739.47
2017-12-11T04:14:46.400Z,97759.20
2017-12-11T04:17:13.931Z,97773.30
2017-12-11T04:19:41.404Z,97783.87
2017-12-11T04:22:08.875Z,97796.34
2017-12-11T04:24:36.378Z,97812.30
2017-12-11T04:27:03.855Z,97821.03
2017-12-11T04:29:31.425Z,97833.25
2017-12-11T04:31:58.928Z,97841.03
2017-12-11T04:34:26.401Z,97853.89
2017-12-11T04:36:53.865Z,97862.06
2017-12-11T04:39:21.379Z,97874.92
2017-12-11T04:41:48.860Z,97874.77
2017-12-11T04:44:16.399Z,97887.38
2017-12-11T04:46:43.909Z,97888.70
2017-12-11T04:49:11.415Z,97900.10
2017-12-11T04:51:38.887Z,97916.59
2017-12-11T04:54:06.404Z,97920.61
2017-12-11T04:56:33.885Z,97938.28
2017-12-11T04:59:01.351Z,97946.55
2017-12-11T05:01:28.864Z,97960.88
2017-12-11T05:03:56.348Z,97958.34
2017-12-11T05:06:23.820Z,97967.19
2017-12-11T05:08:51.353Z,97968.66
2017-12-11T05:11:18.926Z,97966.92
2017-12-11T05:13:46.398Z,97978.47
2017-12-11T05:16:13.924Z,97996.03
2017-12-11T05:18:41.395Z,98008.20
2017-12-11T05:21:08.943Z,98009.80
2017-12-11T05:23:36.458Z,98014.47
2017-12-11T05:26:03.924Z,98014.31
2017-12-11T05:28:31.394Z,98020.75
2017-12-11T05:30:58.896Z,98023.25
2017-12-11T05:33:26.372Z,98033.95
2017-12-11T05:35:53.847Z,98029.52
2017-12-11T05:38:21.356Z,98025.20
2017-12-11T05:40:48.947Z,98026.27
2017-12-11T05:43:16.412Z,98013.52
2017-12-11T05:45:43.910Z,98014.33
2017-12-11T05:48:11.474Z,98016.69
2017-12-11T05:50:38.950Z,98014.08
2017-12-11T05:53:06.479Z,98006.21
2017-12-11T05:55:33.963Z,98020.29
2017-12-11T05:58:01.451Z,98030.25
2017-12-11T06:00:28.970Z,98034.45
2017-12-11T06:02:56.526Z,98047.32
2017-12-11T06:05:24.095Z,98057.67
2017-12-11T06:07:51.694Z,98062.66
2017-12-11T06:10:19.167Z,98063.00
2017-12-11T06:12:46.652Z,98063.95
2017-12-11T06:15:14.159Z,98061.09
2017-12-11T06:17:41.688Z,98068.49
2017-12-11T06:20:09.160Z,98075.41
2017-12-11T06:22:36.627Z,98081.84
2017-12-11T06:25:04.138Z,98084.88
2017-12-11T06:27:31.618Z,98098.33
2017-12-11T06:29:59.197Z,98109.53
2017-12-11T06:32:26.716Z,98116.02
2017-12-11T06:34:54.297Z,98124.95
2017-12-11T06:37:21.777Z,98136.63
2017-12-11T06:39:49.301Z,98138.12
2017-12-11T06:42:16.894Z,98149.73
2017-12-11T06:44:44.383Z,98171.09
2017-12-11T06:47:11.941Z,98167.76
2017-12-11T06:49:39.447Z,98179.16
2017-12-11T06:52:06.938Z,98188.09
2017-12-11T06:54:34.455Z,98188.48
2017-12-11T06:57:01.927Z,98190.19
2017-12-11T06:59:29.397Z,98180.53
2017-12-11T07:01:56.910Z,98192.14
2017-12-11T07:04:24.395Z,98191.09
2017-12-11T07:06:51.871Z,98192.92
2017-12-11T07:09:19.402Z,98194.05
2017-12-11T07:11:46.888Z,98189.53
2017-12-11T07:14:14.381Z,98193.91
2017-12-11T07:16:41.919Z,98206.11
2017-12-11T07:19:09.397Z,98206.03
2017-12-11T07:21:36.900Z,98203.35
2017-12-11T07:24:04.429Z,98220.73
2017-12-11T07:26:32.014Z,98227.64
2017-12-11T07:28:59.505Z,98233.56
2017-12-11T07:31:27.020Z,98228.84
2017-12-11T07:33:54.500Z,98231.78
2017-12-11T07:36:21.987Z,98232.09
2017-12-11T07:38:49.503Z,98225.71
2017-12-11T07:41:17.087Z,98226.70
2017-12-11T07:43:44.559Z,98221.80
2017-12-11T07:46:12.060Z,98232.31
2017-12-11T07:48:39.664Z,98237.08
2017-12-11T07:51:07.151Z,98243.44
2017-12-11T07:53:34.635Z,98239.44
2017-12-11T07:56:02.155Z,98236.62
2017-12-11T07:58:29.931Z,98238.52
2017-12-11T08:00:57.413Z,98240.61
2017-12-11T08:03:24.944Z,98254.87
2017-12-11T08:05:52.477Z,98250.85
2017-12-11T08:08:19.979Z,98252.95
2017-12-11T08:13:21.246Z,98260.44
2017-12-11T08:15:48.751Z,98266.14
2017-12-11T08:18:16.235Z,98272.20
2017-12-11T08:20:43.747Z,98272.11
2017-12-11T08:23:11.265Z,98274.75
2017-12-11T08:25:38.744Z,98277.11
2017-12-11T08:28:06.227Z,98277.66
2017-12-11T08:30:33.748Z,98291.97
2017-12-11T08:33:01.234Z,98294.11
2017-12-11T08:35:28.720Z,98302.31
2017-12-11T08:37:56.379Z,98299.94
2017-12-11T08:40:23.861Z,98292.63
2017-12-11T08:42:51.399Z,98262.31
2017-12-11T08:45:18.926Z,98268.95
2017-12-11T08:47:46.496Z,98281.16
2017-12-11T08:50:14.052Z,98289.50
2017-12-11T08:52:41.587Z,98292.58
2017-12-11T08:55:09.075Z,98276.88
2017-12-11T08:57:36.644Z,98274.06
2017-12-11T09:00:04.216Z,98290.70
2017-12-11T09:02:31.690Z,98293.91
2017-12-11T09:04:59.171Z,98300.47
2017-12-11T09:07:26.765Z,98313.27
2017-12-11T09:09:54.243Z,98307.74
2017-12-11T09:12:21.718Z,98307.38
2017-12-11T09:14:49.337Z,98307.43
2017-12-11T09:17:16.908Z,98315.55
2017-12-11T09:19:44.470Z,98307.99
2017-12-11T09:22:11.999Z,98318.80
2017-12-11T09:24:39.478Z,98322.18
2017-12-11T09:27:06.962Z,98343.23
2017-12-11T09:29:34.476Z,98348.95
2017-12-11T09:32:01.955Z,98349.98
2017-12-11T09:34:29.435Z,98358.77
2017-12-11T09:36:56.964Z,98361.44
2017-12-11T09:39:24.447Z,98371.70
2017-12-11T09:41:51.927Z,98369.97
2017-12-11T09:44:19.459Z,98363.32
2017-12-11T09:46:46.949Z,98362.50
2017-12-11T09:49:14.466Z,98356.00
2017-12-11T09:51:42.000Z,98351.53
2017-12-11T09:54:09.671Z,98358.49
2017-12-11T09:56:37.158Z,98353.76
2017-12-11T09:59:04.684Z,98345.19
2017-12-11T10:01:32.164Z,98334.14
2017-12-11T10:03:59.703Z,98331.68
2017-12-11T10:06:27.191Z,98332.57
2017-12-11T10:08:54.671Z,98328.88
2017-12-11T10:11:22.181Z,98330.39
2017-12-11T10:13:49.662Z,98322.48
2017-12-11T10:16:17.150Z,98310.20
2017-12-11T10:18:44.668Z,98318.64
2017-12-11T10:21:12.150Z,98331.34
2017-12-11T10:23:39.667Z,98320.08
2017-12-11T10:26:07.181Z,98322.80
2017-12-11T10:28:34.662Z,98315.13
2017-12-11T10:31:02.145Z,98312.95
2017-12-11T10:33:29.657Z,98317.37
2017-12-11T10:35:57.142Z,98322.37
2017-12-11T10:38:24.626Z,98319.46
2017-12-11T10:40:52.138Z,98319.46
2017-12-11T10:43:19.618Z,98324.47
2017-12-11T10:45:47.103Z,98310.41
2017-12-11T10:48:14.630Z,98307.73
2017-12-11T10:50:42.124Z,98302.83
2017-12-11T10:53:09.607Z,98310.90
2017-12-11T10:55:37.223Z,98313.70
2017-12-11T10:58:04.790Z,98316.03
2017-12-11T11:00:32.264Z,98313.89
2017-12-11T11:02:59.784Z,98319.69
2017-12-11T11:05:27.369Z,98318.97
2017-12-11T11:07:54.847Z,98308.66
2017-12-11T11:10:22.367Z,98293.35
2017-12-11T11:12:49.857Z,98304.32
2017-12-11T11:15:17.342Z,98297.45
2017-12-11T11:17:44.951Z,98297.62
2017-12-11T11:20:12.429Z,98297.58
2017-12-11T11:22:39.908Z,98296.41
2017-12-11T11:25:07.422Z,98296.73
2017-12-11T11:27:34.911Z,98286.17
2017-12-11T11:30:02.448Z,98280.78
2017-12-11T11:32:29.967Z,98287.74
2017-12-11T11:34:57.445Z,98278.02
2017-12-11T11:37:24.974Z,98281.23
2017-12-11T11:39:52.502Z,98292.83
2017-12-11T11:42:19.979Z,98292.10
2017-12-11T11:44:47.823Z,98296.12
2017-12-11T11:47:15.348Z,98285.20
2017-12-11T11:49:42.837Z,98277.47
2017-12-11T11:52:10.323Z,98279.83
2017-12-11T11:54:37.958Z,98279.43
2017-12-11T11:57:05.439Z,98264.84
2017-12-11T11:59:32.957Z,98245.47
2017-12-11T12:02:00.466Z,98257.95
2017-12-11T12:04:28.019Z,98242.91
2017-12-11T12:06:55.522Z,98229.48
2017-12-11T12:09:23.049Z,98210.86
2017-12-11T12:11:50.527Z,98228.47
2017-12-11T12:14:18.108Z,98228.95
2017-12-11T12:16:45.663Z,98216.03
2017-12-11T12:19:13.174Z,98223.27
2017-12-11T12:21:40.686Z,98234.88
2017-12-11T12:24:08.497Z,98229.73
2017-12-11T12:26:36.020Z,98221.61
2017-12-11T12:29:03.511Z,98214.98
2017-12-11T12:31:30.990Z,98223.13
2017-12-11T12:33:59.214Z,98224.06
2017-12-11T12:36:26.697Z,98213.09
2017-12-11T12:38:54.690Z,98213.45
2017-12-11T12:41:22.302Z,98227.73
2017-12-11T12:43:49.788Z,98230.69
2017-12-11T12:46:17.274Z,98239.25
2017-12-11T12:48:44.774Z,98243.63
2017-12-11T12:51:12.259Z,98240.91
2017-12-11T12:53:39.775Z,98227.00
2017-12-11T12:56:07.335Z,98224.05
2017-12-11T12:58:34.819Z,98226.16
2017-12-11T13:01:02.449Z,98213.69
2017-12-11T13:06:20.521Z,98211.44
2017-12-11T13:08:47.995Z,98211.34
2017-12-11T13:11:15.403Z,98210.67
2017-12-11T13:13:42.831Z,98194.80
2017-12-11T13:16:10.259Z,98180.50
2017-12-11T13:18:37.672Z,98182.97
2017-12-11T13:21:05.265Z,98180.91
2017-12-11T13:23:32.692Z,98171.81
2017-12-11T13:26:00.355Z,98167.89
2017-12-11T13:28:27.765Z,98165.50
2017-12-11T13:30:55.192Z,98159.31
2017-12-11T13:33:22.751Z,98156.08
2017-12-11T13:35:50.162Z,98150.59
2017-12-11T13:38:17.589Z,98142.61
2017-12-11T13:40:44.998Z,98142.66
2017-12-11T13:43:12.408Z,98141.92
2017-12-11T13:45:39.846Z,98130.88
2017-12-11T13:48:07.268Z,98123.02
2017-12-11T13:50:34.747Z,98126.13
2017-12-11T13:53:02.215Z,98125.28
2017-12-11T13:55:29.667Z,98127.64
2017-12-11T13:57:57.088Z,98125.41
2017-12-11T14:00:24.516Z,98139.89
2017-12-11T14:02:51.943Z,98137.83
2017-12-11T14:05:19.366Z,98122.33
2017-12-11T14:07:46.832Z,98097.88
2017-12-11T14:10:14.311Z,98084.68
2017-12-11T14:12:41.723Z,98081.53
2017-12-11T14:15:09.225Z,98072.53
2017-12-11T14:17:36.627Z,98072.89
2017-12-11T14:20:04.048Z,98067.81
2017-12-11T14:22:31.614Z,98065.18
2017-12-11T14:24:59.023Z,98051.94
2017-12-11T14:27:31.387Z,98062.55
2017-12-11T14:29:58.875Z,98062.81
2017-12-11T14:32:26.295Z,98063.75
2017-12-11T14:34:53.725Z,98072.34
2017-12-11T14:37:21.195Z,98084.26
2017-12-11T14:39:48.641Z,98083.62
2017-12-11T14:42:16.071Z,98092.76
2017-12-11T14:44:44.335Z,98093.19
2017-12-11T14:47:11.866Z,98103.63
2017-12-11T14:49:39.297Z,98092.36
2017-12-11T14:52:06.703Z,98086.34
2017-12-11T14:54:34.111Z,98084.34
2017-12-11T14:57:01.765Z,98089.92
2017-12-11T14:59:29.173Z,98082.09
2017-12-11T15:01:56.746Z,98072.19
2017-12-11T15:04:24.186Z,98065.97
2017-12-11T15:06:51.671Z,98070.66
2017-12-11T15:09:19.204Z,98066.34
2017-12-11T15:11:46.613Z,98058.31
2017-12-11T15:14:14.016Z,98056.84
2017-12-11T15:16:41.443Z,98050.92
2017-12-11T15:19:08.936Z,98053.96
2017-12-11T15:21:36.355Z,98051.12
2017-12-11T15:24:03.771Z,98053.45
2017-12-11T15:26:31.200Z,98048.60
2017-12-11T15:28:58.675Z,98047.40
2017-12-11T15:31:26.082Z,98045.30
2017-12-11T15:33:53.500Z,98043.66
2017-12-11T15:36:20.932Z,98040.66
2017-12-11T15:38:48.337Z,98047.51
2017-12-11T15:41:15.747Z,98043.93
2017-12-11T15:43:43.168Z,98047.55
2017-12-11T15:46:10.648Z,98052.32
2017-12-11T15:48:38.068Z,98049.52
2017-12-11T15:51:05.496Z,98052.98
2017-12-11T15:53:32.907Z,98038.84
2017-12-11T15:56:00.325Z,98039.82
2017-12-11T15:58:27.740Z,98041.80
2017-12-11T16:00:55.212Z,98044.77
2017-12-11T16:03:22.757Z,98045.34
2017-12-11T16:05:50.167Z,98041.26
2017-12-11T16:08:17.599Z,98039.12
2017-12-11T16:10:45.016Z,98040.33
2017-12-11T16:13:12.472Z,98040.66
2017-12-11T16:15:39.884Z,98039.19
2017-12-11T16:18:07.396Z,98035.71
2017-12-11T16:20:34.852Z,98031.36
2017-12-11T16:23:02.268Z,98024.70
2017-12-11T16:25:29.963Z,98021.50
2017-12-11T16:27:57.365Z,98032.73
2017-12-11T16:30:24.767Z,98034.68
2017-12-11T16:32:52.198Z,98031.41
2017-12-11T16:35:19.710Z,98034.98
2017-12-11T16:37:47.120Z,98031.80
2017-12-11T16:40:14.710Z,98029.99
2017-12-11T16:42:42.578Z,98031.44
2017-12-11T16:45:10.446Z,98035.25
2017-12-11T16:47:37.908Z,98042.00
2017-12-11T16:50:05.557Z,98036.22
2017-12-11T16:52:33.127Z,98031.19
2017-12-11T16:55:00.674Z,98024.56
2017-12-11T16:57:28.145Z,98023.55
2017-12-11T16:59:55.601Z,98025.89
2017-12-11T17:02:23.013Z,98025.28
2017-12-11T17:04:50.605Z,98027.91
2017-12-11T17:07:18.047Z,98028.67
2017-12-11T17:09:45.519Z,98024.17
2017-12-11T17:12:12.921Z,98027.06
2017-12-11T17:14:40.343Z,98021.73
2017-12-11T17:17:07.890Z,98023.61
2017-12-11T17:19:35.295Z,98012.82
2017-12-11T17:22:02.920Z,98021.81
2017-12-11T17:24:30.324Z,98021.61
2017-12-11T17:26:57.831Z,98018.70
2017-12-11T17:29:25.278Z,98017.28
2017-12-11T17:31:52.734Z,98020.81
2017-12-11T17:34:20.135Z,98020.22
2017-12-11T17:36:47.760Z,98007.91
2017-12-11T17:39:16.008Z,97998.84
2017-12-11T17:41:43.415Z,97998.47
2017-12-11T17:44:10.955Z,97995.52
2017-12-11T17:46:38.366Z,97997.81
2017-12-11T17:49:05.777Z,98000.81
2017-12-11T17:51:33.229Z,97994.27
2017-12-11T17:54:00.770Z,97996.20
2017-12-11T17:56:28.207Z,97995.93
2017-12-11T17:58:55.914Z,97996.22
2017-12-11T18:01:23.329Z,97998.50
2017-12-11T18:03:50.767Z,97999.02
2017-12-11T18:06:18.321Z,98002.09
2017-12-11T18:08:45.799Z,98003.28
2017-12-11T18:13:46.984Z,97996.71
2017-12-11T18:16:14.415Z,98003.30
2017-12-11T18:18:42.103Z,97999.69
2017-12-11T18:21:09.568Z,97993.39
2017-12-11T18:23:37.113Z,97998.61
2017-12-11T18:26:04.580Z,98004.93
2017-12-11T18:28:32.261Z,97996.64
2017-12-11T18:30:59.805Z,98003.10
2017-12-11T18:33:27.245Z,97997.60
2017-12-11T18:35:54.643Z,98007.81
2017-12-11T18:40:55.914Z,98020.83
2017-12-11T18:43:23.342Z,98024.33
2017-12-11T18:45:50.753Z,98030.01
2017-12-11T18:48:18.157Z,98033.76
2017-12-11T18:50:45.588Z,98032.59
2017-12-11T18:53:13.055Z,98042.40
2017-12-11T18:55:40.522Z,98034.27
2017-12-11T18:58:08.061Z,98025.70
2017-12-11T19:00:35.518Z,98012.59
2017-12-11T19:03:02.920Z,98008.05
2017-12-11T19:05:30.427Z,98000.95
2017-12-11T19:07:57.835Z,98006.47
2017-12-11T19:10:25.251Z,98008.09
2017-12-11T19:12:52.700Z,98010.64
2017-12-11T19:15:20.369Z,98011.89
2017-12-11T19:17:47.799Z,98011.09
2017-12-11T19:20:15.276Z,98008.27
2017-12-11T19:22:42.735Z,98011.77
2017-12-11T19:25:10.137Z,98013.97
2017-12-11T19:27:37.577Z,98004.16
2017-12-11T19:30:05.320Z,98002.86
2017-12-11T19:32:32.736Z,98003.91
2017-12-11T19:35:00.172Z,98001.61
2017-12-11T19:37:27.578Z,97991.97
2017-12-11T19:39:55.047Z,97980.05
2017-12-11T19:42:22.471Z,97976.14
2017-12-11T19:44:49.955Z,97987.17
2017-12-11T19:47:17.363Z,97983.02
2017-12-11T19:49:44.806Z,97977.11
2017-12-11T19:52:12.208Z,97976.73
2017-12-11T19:54:39.690Z,97973.66
2017-12-11T19:57:07.112Z,97960.63
2017-12-11T19:59:34.530Z,97947.73
2017-12-11T20:02:02.041Z,97954.59
2017-12-11T20:04:29.455Z,97953.25
2017-12-11T20:06:56.914Z,97947.48
2017-12-11T20:09:24.323Z,97980.74
2017-12-11T20:11:51.779Z,97999.14
2017-12-11T20:14:19.600Z,98002.64
2017-12-11T20:16:47.125Z,97988.58
2017-12-11T20:19:14.725Z,97993.42
2017-12-11T20:21:42.143Z,98015.59
2017-12-11T20:24:09.552Z,98025.00
2017-12-11T20:26:37.044Z,98001.94
2017-12-11T20:29:04.480Z,98015.91
2017-12-11T20:31:31.885Z,98022.34
2017-12-11T20:33:59.292Z,98021.95
2017-12-11T20:36:26.762Z,98024.79
2017-12-11T20:38:54.219Z,98016.73
2017-12-11T20:41:21.631Z,98012.31
2017-12-11T20:43:49.047Z,98011.37
2017-12-11T20:46:16.457Z,98003.45
2017-12-11T20:48:43.870Z,97998.88
2017-12-11T20:51:11.299Z,98005.45
2017-12-11T20:53:38.715Z,98004.26
2017-12-11T20:56:06.120Z,98006.95
2017-12-11T20:58:33.565Z,98004.12
2017-12-11T21:01:01.011Z,97999.04
2017-12-11T21:03:28.412Z,98016.89
2017-12-11T21:05:55.850Z,98027.23
2017-12-11T21:08:23.295Z,98024.26
2017-12-11T21:10:50.699Z,98035.00
2017-12-11T21:13:18.215Z,98028.04
2017-12-11T21:15:45.645Z,98035.81
2017-12-11T21:18:13.047Z,98043.06
2017-12-11T21:20:40.489Z,98045.91
2017-12-11T21:23:07.895Z,98051.98
2017-12-11T21:25:35.343Z,98050.76
2017-12-11T21:28:02.831Z,98067.27
2017-12-11T21:30:30.239Z,98072.24
2017-12-11T21:32:57.659Z,98052.64
2017-12-11T21:35:25.097Z,98081.13
2017-12-11T21:37:52.589Z,98080.47
2017-12-11T21:40:19.980Z,98105.61
2017-12-11T21:42:47.406Z,98104.84
2017-12-11T21:45:14.813Z,98103.27
2017-12-11T21:47:42.300Z,98097.65
2017-12-11T21:50:09.753Z,98100.76
2017-12-11T21:52:37.167Z,98108.30
2017-12-11T21:55:04.597Z,98102.78
2017-12-11T21:57:32.012Z,98098.64
2017-12-11T21:59:59.432Z,98110.45
2017-12-11T22:02:26.868Z,98106.02
2017-12-11T22:04:54.271Z,98101.88
2017-12-11T22:07:21.748Z,98106.18
2017-12-11T22:09:49.199Z,98122.60
2017-12-11T22:12:16.636Z,98113.99
2017-12-11T22:14:44.053Z,98114.55
2017-12-11T22:17:11.483Z,98120.18
2017-12-11T22:19:38.891Z,98111.97
2017-12-11T22:22:06.391Z,98113.60
2017-12-11T22:24:33.939Z,98112.37
2017-12-11T22:27:01.389Z,98104.84
2017-12-11T22:29:28.846Z,98109.53
2017-12-11T22:31:56.232Z,98118.12
2017-12-11T22:34:23.676Z,98113.39
2017-12-11T22:36:51.115Z,98118.76
2017-12-11T22:39:18.584Z,98122.39
2017-12-11T22:41:46.003Z,98125.08
2017-12-11T22:44:13.499Z,98114.83
2017-12-11T22:46:40.923Z,98116.18
2017-12-11T22:49:08.327Z,98115.12
2017-12-11T22:51:35.739Z,98118.62
2017-12-11T22:54:03.166Z,98122.26
2017-12-11T22:56:30.681Z,98127.38
2017-12-11T22:58:58.137Z,98146.60
2017-12-11T23:01:25.543Z,98150.49
2017-12-11T23:03:52.964Z,98157.39
2017-12-11T23:06:20.406Z,98155.77
2017-12-11T23:08:47.824Z,98131.05
2017-12-11T23:11:15.309Z,98139.23
2017-12-11T23:13:42.744Z,98160.50
2017-12-11T23:16:10.151Z,98154.47
2017-12-11T23:18:37.559Z,98147.45
2017-12-11T23:21:05.007Z,98149.09
2017-12-11T23:23:32.415Z,98145.45
2017-12-11T23:25:59.856Z,98150.84
2017-12-11T23:28:27.295Z,98156.08
2017-12-11T23:30:54.767Z,98162.41
2017-12-11T23:33:22.215Z,98158.63
2017-12-11T23:35:49.639Z,98154.08
2017-12-11T23:38:17.040Z,98156.48
2017-12-11T23:40:44.500Z,98151.10
2017-12-11T23:43:11.942Z,98162.66
2017-12-11T23:45:39.353Z,98170.34
2017-12-11T23:48:06.763Z,98173.57
2017-12-11T23:50:34.208Z,98178.95
2017-12-11T23:53:01.608Z,98189.86
2017-12-11T23:55:29.029Z,98182.88
2017-12-11T23:57:56.472Z,98181.66
